sensor_id;sensor_type;location;lat;lon;timestamp;pressure;altitude;pressure_sealevel;temperature;humidity
80198;BME280;69517;52.030;7.106;2024-01-07T00:00:05;100751.66;;;21.24;72.31
80198;BME280;69517;52.030;7.106;2024-01-07T00:02:31;100746.38;;;21.24;71.94
80198;BME280;69517;52.030;7.106;2024-01-07T00:04:57;100755.22;;;21.23;72.26
80198;BME280;69517;52.030;7.106;2024-01-07T00:07:24;100752.72;;;21.22;72.09
80198;BME280;69517;52.030;7.106;2024-01-07T00:09:51;100754.50;;;21.21;71.70
80198;BME280;69517;52.030;7.106;2024-01-07T00:12:17;100754.50;;;21.21;71.67
80198;BME280;69517;52.030;7.106;2024-01-07T00:14:43;100757.22;;;21.20;71.56
80198;BME280;69517;52.030;7.106;2024-01-07T00:17:11;100747.66;;;21.19;71.48
80198;BME280;69517;52.030;7.106;2024-01-07T00:19:37;100758.16;;;21.19;71.47
80198;BME280;69517;52.030;7.106;2024-01-07T00:22:04;100759.09;;;21.18;71.41
80198;BME280;69517;52.030;7.106;2024-01-07T00:24:31;100757.53;;;21.15;71.54
80198;BME280;69517;52.030;7.106;2024-01-07T00:26:57;100767.28;;;21.13;71.52
80198;BME280;69517;52.030;7.106;2024-01-07T00:29:23;100764.75;;;21.12;71.56
80198;BME280;69517;52.030;7.106;2024-01-07T00:31:49;100770.22;;;21.09;72.02
80198;BME280;69517;52.030;7.106;2024-01-07T00:34:17;100773.38;;;21.14;71.52
80198;BME280;69517;52.030;7.106;2024-01-07T00:36:43;100776.09;;;21.12;71.64
80198;BME280;69517;52.030;7.106;2024-01-07T00:39:09;100776.31;;;21.09;72.13
80198;BME280;69517;52.030;7.106;2024-01-07T00:41:36;100770.31;;;21.07;72.36
80198;BME280;69517;52.030;7.106;2024-01-07T00:44:02;100774.72;;;21.06;71.86
80198;BME280;69517;52.030;7.106;2024-01-07T00:46:28;100777.34;;;21.06;72.21
80198;BME280;69517;52.030;7.106;2024-01-07T00:48:55;100781.59;;;21.09;71.56
80198;BME280;69517;52.030;7.106;2024-01-07T00:51:21;100787.03;;;21.06;72.48
80198;BME280;69517;52.030;7.106;2024-01-07T00:53:47;100787.03;;;21.06;72.38
80198;BME280;69517;52.030;7.106;2024-01-07T00:56:14;100790.50;;;21.06;71.52
80198;BME280;69517;52.030;7.106;2024-01-07T00:58:40;100786.94;;;21.08;71.63
80198;BME280;69517;52.030;7.106;2024-01-07T01:01:06;100796.69;;;21.05;71.55
80198;BME280;69517;52.030;7.106;2024-01-07T01:03:32;100793.22;;;21.05;71.50
80198;BME280;69517;52.030;7.106;2024-01-07T01:05:59;100795.13;;;21.03;71.46
80198;BME280;69517;52.030;7.106;2024-01-07T01:08:26;100802.19;;;21.02;71.47
80198;BME280;69517;52.030;7.106;2024-01-07T01:10:52;100800.50;;;21.01;71.53
80198;BME280;69517;52.030;7.106;2024-01-07T01:13:19;100803.22;;;21.00;71.91
80198;BME280;69517;52.030;7.106;2024-01-07T01:15:45;100807.75;;;20.98;71.77
80198;BME280;69517;52.030;7.106;2024-01-07T01:18:11;100806.06;;;20.97;71.88
80198;BME280;69517;52.030;7.106;2024-01-07T01:20:38;100798.28;;;20.95;72.08
80198;BME280;69517;52.030;7.106;2024-01-07T01:23:04;100807.09;;;20.94;71.94
80198;BME280;69517;52.030;7.106;2024-01-07T01:25:31;100804.56;;;20.93;72.06
80198;BME280;69517;52.030;7.106;2024-01-07T01:27:58;100813.41;;;20.92;72.09
80198;BME280;69517;52.030;7.106;2024-01-07T01:30:24;100816.13;;;20.90;71.99
80198;BME280;69517;52.030;7.106;2024-01-07T01:32:52;100820.53;;;20.90;72.14
80198;BME280;69517;52.030;7.106;2024-01-07T01:35:19;100825.91;;;20.88;72.21
80198;BME280;69517;52.030;7.106;2024-01-07T01:37:45;100824.09;;;20.89;71.87
80198;BME280;69517;52.030;7.106;2024-01-07T01:40:12;100829.28;;;20.90;71.86
80198;BME280;69517;52.030;7.106;2024-01-07T01:42:42;100835.47;;;20.89;72.35
80198;BME280;69517;52.030;7.106;2024-01-07T01:45:08;100836.41;;;20.88;71.80
80198;BME280;69517;52.030;7.106;2024-01-07T01:47:35;100838.28;;;20.86;72.48
80198;BME280;69517;52.030;7.106;2024-01-07T01:50:01;100838.28;;;20.86;71.87
80198;BME280;69517;52.030;7.106;2024-01-07T01:52:28;100838.41;;;20.85;71.89
80198;BME280;69517;52.030;7.106;2024-01-07T01:54:54;100847.22;;;20.84;71.79
80198;BME280;69517;52.030;7.106;2024-01-07T01:57:21;100841.13;;;20.83;72.02
80198;BME280;69517;52.030;7.106;2024-01-07T01:59:50;100857.91;;;20.81;72.08
80198;BME280;69517;52.030;7.106;2024-01-07T02:02:16;100857.91;;;20.81;72.27
80198;BME280;69517;52.030;7.106;2024-01-07T02:04:42;100851.81;;;20.80;71.87
80198;BME280;69517;52.030;7.106;2024-01-07T02:07:09;100865.06;;;20.79;72.00
80198;BME280;69517;52.030;7.106;2024-01-07T02:09:35;100864.22;;;20.78;71.94
80198;BME280;69517;52.030;7.106;2024-01-07T02:12:02;100866.94;;;20.77;71.92
80198;BME280;69517;52.030;7.106;2024-01-07T02:14:28;100866.94;;;20.77;71.96
80198;BME280;69517;52.030;7.106;2024-01-07T02:16:56;100879.25;;;20.76;72.01
80198;BME280;69517;52.030;7.106;2024-01-07T02:19:22;100878.41;;;20.76;72.51
80198;BME280;69517;52.030;7.106;2024-01-07T02:21:49;100878.59;;;20.73;72.12
80198;BME280;69517;52.030;7.106;2024-01-07T02:24:17;100882.09;;;20.73;72.49
80198;BME280;69517;52.030;7.106;2024-01-07T02:26:43;100879.53;;;20.72;72.11
80198;BME280;69517;52.030;7.106;2024-01-07T02:29:10;100881.31;;;20.71;72.20
80198;BME280;69517;52.030;7.106;2024-01-07T02:31:36;100877.84;;;20.71;72.05
80198;BME280;69517;52.030;7.106;2024-01-07T02:34:02;100878.03;;;20.67;72.55
80198;BME280;69517;52.030;7.106;2024-01-07T02:36:29;100880.56;;;20.69;72.23
80198;BME280;69517;52.030;7.106;2024-01-07T02:38:55;100879.72;;;20.69;72.28
80198;BME280;69517;52.030;7.106;2024-01-07T02:41:22;100884.25;;;20.67;72.32
80198;BME280;69517;52.030;7.106;2024-01-07T02:43:50;100886.88;;;20.67;72.28
80198;BME280;69517;52.030;7.106;2024-01-07T02:46:16;100890.44;;;20.65;72.33
80198;BME280;69517;52.030;7.106;2024-01-07T02:48:43;100888.75;;;20.64;72.34
80198;BME280;69517;52.030;7.106;2024-01-07T02:51:09;100897.56;;;20.63;72.50
80198;BME280;69517;52.030;7.106;2024-01-07T02:53:35;100897.56;;;20.63;72.35
80198;BME280;69517;52.030;7.106;2024-01-07T02:56:02;100898.50;;;20.62;72.79
80198;BME280;69517;52.030;7.106;2024-01-07T02:58:29;100904.69;;;20.61;72.32
80198;BME280;69517;52.030;7.106;2024-01-07T03:00:55;100903.03;;;20.60;73.55
80198;BME280;69517;52.030;7.106;2024-01-07T03:03:22;100910.06;;;20.60;72.87
80198;BME280;69517;52.030;7.106;2024-01-07T03:05:48;100912.78;;;20.58;72.84
80198;BME280;69517;52.030;7.106;2024-01-07T03:08:15;100913.72;;;20.57;73.27
80198;BME280;69517;52.030;7.106;2024-01-07T03:10:41;100911.09;;;20.57;72.61
80198;BME280;69517;52.030;7.106;2024-01-07T03:13:07;100921.59;;;20.57;72.49
80198;BME280;69517;52.030;7.106;2024-01-07T03:15:35;100918.97;;;20.57;72.56
80198;BME280;69517;52.030;7.106;2024-01-07T03:18:01;100924.31;;;20.56;72.75
80198;BME280;69517;52.030;7.106;2024-01-07T03:20:27;100928.72;;;20.55;72.95
80198;BME280;69517;52.030;7.106;2024-01-07T03:22:53;100930.53;;;20.55;72.63
80198;BME280;69517;52.030;7.106;2024-01-07T03:25:20;100924.44;;;20.54;72.87
80198;BME280;69517;52.030;7.106;2024-01-07T03:27:46;100931.56;;;20.52;72.51
80198;BME280;69517;52.030;7.106;2024-01-07T03:30:13;100944.59;;;20.54;72.59
80198;BME280;69517;52.030;7.106;2024-01-07T03:32:40;100941.13;;;20.53;72.40
80198;BME280;69517;52.030;7.106;2024-01-07T03:35:07;100946.47;;;20.52;72.62
80198;BME280;69517;52.030;7.106;2024-01-07T03:37:33;100947.41;;;20.51;72.49
80198;BME280;69517;52.030;7.106;2024-01-07T03:40:00;100944.03;;;20.49;72.53
80198;BME280;69517;52.030;7.106;2024-01-07T03:42:26;100945.06;;;20.46;72.63
80198;BME280;69517;52.030;7.106;2024-01-07T03:44:52;100949.56;;;20.44;72.67
80198;BME280;69517;52.030;7.106;2024-01-07T03:47:18;100948.84;;;20.42;72.73
80198;BME280;69517;52.030;7.106;2024-01-07T03:49:46;100954.09;;;20.42;72.75
80198;BME280;69517;52.030;7.106;2024-01-07T03:52:12;100957.66;;;20.41;72.82
80198;BME280;69517;52.030;7.106;2024-01-07T03:54:39;100955.94;;;20.40;72.81
80198;BME280;69517;52.030;7.106;2024-01-07T03:57:05;100967.22;;;20.42;72.89
80198;BME280;69517;52.030;7.106;2024-01-07T03:59:31;100971.63;;;20.42;72.84
80198;BME280;69517;52.030;7.106;2024-01-07T04:01:57;100967.38;;;20.39;72.80
80198;BME280;69517;52.030;7.106;2024-01-07T04:04:24;100973.50;;;20.40;72.88
80198;BME280;69517;52.030;7.106;2024-01-07T04:06:51;100971.78;;;20.39;72.82
80198;BME280;69517;52.030;7.106;2024-01-07T04:09:18;100977.91;;;20.39;72.74
80198;BME280;69517;52.030;7.106;2024-01-07T04:11:44;100982.31;;;20.39;72.72
80198;BME280;69517;52.030;7.106;2024-01-07T04:14:10;100972.63;;;20.39;72.69
80198;BME280;69517;52.030;7.106;2024-01-07T04:16:36;100985.00;;;20.37;72.58
80198;BME280;69517;52.030;7.106;2024-01-07T04:19:03;100982.38;;;20.37;72.68
80198;BME280;69517;52.030;7.106;2024-01-07T04:21:29;100987.63;;;20.37;72.58
80198;BME280;69517;52.030;7.106;2024-01-07T04:23:56;100978.09;;;20.36;72.69
80198;BME280;69517;52.030;7.106;2024-01-07T04:26:23;100989.53;;;20.35;72.46
80198;BME280;69517;52.030;7.106;2024-01-07T04:28:49;100992.16;;;20.35;72.53
80198;BME280;69517;52.030;7.106;2024-01-07T04:31:15;100997.41;;;20.35;72.50
80198;BME280;69517;52.030;7.106;2024-01-07T04:33:41;100994.69;;;20.37;72.36
80198;BME280;69517;52.030;7.106;2024-01-07T04:36:08;100997.88;;;20.42;72.18
80198;BME280;69517;52.030;7.106;2024-01-07T04:38:34;100995.13;;;20.43;72.12
80198;BME280;69517;52.030;7.106;2024-01-07T04:41:02;100999.47;;;20.44;72.12
80198;BME280;69517;52.030;7.106;2024-01-07T04:43:28;100997.50;;;20.48;71.99
80198;BME280;69517;52.030;7.106;2024-01-07T04:45:54;101000.03;;;20.49;72.23
80198;BME280;69517;52.030;7.106;2024-01-07T04:48:21;101000.88;;;20.50;72.21
80198;BME280;69517;52.030;7.106;2024-01-07T04:50:47;100999.00;;;20.52;72.48
80198;BME280;69517;52.030;7.106;2024-01-07T04:53:14;101007.63;;;20.54;72.12
80198;BME280;69517;52.030;7.106;2024-01-07T04:55:40;101007.53;;;20.55;72.35
80198;BME280;69517;52.030;7.106;2024-01-07T04:58:07;101013.53;;;20.57;72.10
80198;BME280;69517;52.030;7.106;2024-01-07T05:00:34;101016.16;;;20.57;72.22
80198;BME280;69517;52.030;7.106;2024-01-07T05:03:00;101022.09;;;20.61;72.09
80198;BME280;69517;52.030;7.106;2024-01-07T05:05:26;101027.22;;;20.62;71.99
80198;BME280;69517;52.030;7.106;2024-01-07T05:07:52;101023.66;;;20.63;71.75
80198;BME280;69517;52.030;7.106;2024-01-07T05:10:19;101032.31;;;20.65;71.81
80198;BME280;69517;52.030;7.106;2024-01-07T05:12:45;101031.38;;;20.67;71.68
80198;BME280;69517;52.030;7.106;2024-01-07T05:15:13;101040.00;;;20.69;71.75
80198;BME280;69517;52.030;7.106;2024-01-07T05:17:39;101039.91;;;20.70;71.66
80198;BME280;69517;52.030;7.106;2024-01-07T05:20:06;101043.28;;;20.72;71.64
80198;BME280;69517;52.030;7.106;2024-01-07T05:22:32;101044.16;;;20.73;71.46
80198;BME280;69517;52.030;7.106;2024-01-07T05:24:59;101055.50;;;20.73;71.46
80198;BME280;69517;52.030;7.106;2024-01-07T05:27:26;101052.66;;;20.76;71.61
80198;BME280;69517;52.030;7.106;2024-01-07T05:29:52;101050.88;;;20.77;71.43
80198;BME280;69517;52.030;7.106;2024-01-07T05:32:21;101065.63;;;20.79;71.44
80198;BME280;69517;52.030;7.106;2024-01-07T05:34:47;101071.75;;;20.80;71.52
80198;BME280;69517;52.030;7.106;2024-01-07T05:37:14;101070.88;;;20.79;71.52
80198;BME280;69517;52.030;7.106;2024-01-07T05:39:40;101068.16;;;20.81;71.50
80198;BME280;69517;52.030;7.106;2024-01-07T05:42:06;101075.94;;;20.82;71.38
80198;BME280;69517;52.030;7.106;2024-01-07T05:44:32;101078.47;;;20.84;71.43
80198;BME280;69517;52.030;7.106;2024-01-07T05:46:59;101074.91;;;20.85;71.35
80198;BME280;69517;52.030;7.106;2024-01-07T05:49:26;101083.66;;;20.85;71.40
80198;BME280;69517;52.030;7.106;2024-01-07T05:51:53;101089.63;;;20.87;71.59
80198;BME280;69517;52.030;7.106;2024-01-07T05:54:19;101090.47;;;20.88;71.44
80198;BME280;69517;52.030;7.106;2024-01-07T05:56:47;101097.44;;;20.89;71.45
80198;BME280;69517;52.030;7.106;2024-01-07T05:59:14;101097.34;;;20.90;71.41
80198;BME280;69517;52.030;7.106;2024-01-07T06:01:40;101095.56;;;20.91;71.34
80198;BME280;69517;52.030;7.106;2024-01-07T06:04:06;101096.41;;;20.91;71.30
80198;BME280;69517;52.030;7.106;2024-01-07T06:06:34;101097.25;;;20.92;71.44
80198;BME280;69517;52.030;7.106;2024-01-07T06:09:00;101104.31;;;20.91;71.36
80198;BME280;69517;52.030;7.106;2024-01-07T06:11:27;101106.94;;;20.91;71.31
80198;BME280;69517;52.030;7.106;2024-01-07T06:13:53;101118.28;;;20.92;71.41
80198;BME280;69517;52.030;7.106;2024-01-07T06:16:19;101119.09;;;20.92;71.38
80198;BME280;69517;52.030;7.106;2024-01-07T06:18:45;101118.28;;;20.92;71.33
80198;BME280;69517;52.030;7.106;2024-01-07T06:21:12;101125.22;;;20.93;71.41
80198;BME280;69517;52.030;7.106;2024-01-07T06:23:40;101128.69;;;20.93;71.41
80198;BME280;69517;52.030;7.106;2024-01-07T06:26:06;101132.16;;;20.94;71.40
80198;BME280;69517;52.030;7.106;2024-01-07T06:28:32;101136.50;;;20.95;71.30
80198;BME280;69517;52.030;7.106;2024-01-07T06:30:59;101148.50;;;20.99;71.28
80198;BME280;69517;52.030;7.106;2024-01-07T06:33:25;101149.47;;;20.98;71.14
80198;BME280;69517;52.030;7.106;2024-01-07T06:35:51;101152.09;;;20.98;71.34
80198;BME280;69517;52.030;7.106;2024-01-07T06:38:17;101153.88;;;20.97;71.11
80198;BME280;69517;52.030;7.106;2024-01-07T06:40:45;101155.44;;;21.00;71.17
80198;BME280;69517;52.030;7.106;2024-01-07T06:43:11;101162.88;;;21.08;70.68
80198;BME280;69517;52.030;7.106;2024-01-07T06:45:38;101168.81;;;21.25;70.25
80198;BME280;69517;52.030;7.106;2024-01-07T06:48:04;101163.19;;;21.31;69.86
80198;BME280;69517;52.030;7.106;2024-01-07T06:50:31;101171.53;;;21.38;69.67
80198;BME280;69517;52.030;7.106;2024-01-07T06:52:57;101181.03;;;21.40;69.56
80198;BME280;69517;52.030;7.106;2024-01-07T06:55:23;101180.84;;;21.43;69.43
80198;BME280;69517;52.030;7.106;2024-01-07T06:57:51;101183.94;;;21.50;69.26
80198;BME280;69517;52.030;7.106;2024-01-07T07:00:17;101187.78;;;21.59;69.02
80198;BME280;69517;52.030;7.106;2024-01-07T07:02:44;101188.13;;;21.67;68.77
80198;BME280;69517;52.030;7.106;2024-01-07T07:05:10;101196.78;;;21.69;68.78
80198;BME280;69517;52.030;7.106;2024-01-07T07:07:36;101198.16;;;21.74;68.58
80198;BME280;69517;52.030;7.106;2024-01-07T07:10:03;101204.84;;;21.80;68.38
80198;BME280;69517;52.030;7.106;2024-01-07T07:12:29;101210.84;;;21.82;68.34
80198;BME280;69517;52.030;7.106;2024-01-07T07:14:57;101217.69;;;21.84;68.23
80198;BME280;69517;52.030;7.106;2024-01-07T07:17:23;101221.47;;;21.80;68.53
80198;BME280;69517;52.030;7.106;2024-01-07T07:19:49;101228.53;;;21.80;68.77
80198;BME280;69517;52.030;7.106;2024-01-07T07:22:16;101235.47;;;21.81;69.05
80198;BME280;69517;52.030;7.106;2024-01-07T07:24:42;101242.22;;;21.85;69.32
80198;BME280;69517;52.030;7.106;2024-01-07T07:27:09;101247.19;;;21.90;69.25
80198;BME280;69517;52.030;7.106;2024-01-07T07:29:35;101252.47;;;21.90;69.42
80198;BME280;69517;52.030;7.106;2024-01-07T07:32:03;101255.94;;;21.90;69.62
80198;BME280;69517;52.030;7.106;2024-01-07T07:34:29;101255.00;;;21.91;69.63
80198;BME280;69517;52.030;7.106;2024-01-07T07:36:55;101263.13;;;21.88;70.04
80198;BME280;69517;52.030;7.106;2024-01-07T07:39:22;101267.53;;;21.88;70.24
80198;BME280;69517;52.030;7.106;2024-01-07T07:41:48;101275.22;;;21.91;70.32
80198;BME280;69517;52.030;7.106;2024-01-07T07:44:14;101272.13;;;21.84;70.78
80198;BME280;69517;52.030;7.106;2024-01-07T07:46:40;101285.19;;;21.85;70.80
80198;BME280;69517;52.030;7.106;2024-01-07T07:49:08;101290.56;;;21.84;70.91
80198;BME280;69517;52.030;7.106;2024-01-07T07:51:36;101284.44;;;21.83;70.97
80198;BME280;69517;52.030;7.106;2024-01-07T07:54:02;101287.75;;;21.87;71.45
80198;BME280;69517;52.030;7.106;2024-01-07T07:56:29;101289.63;;;21.85;71.53
80198;BME280;69517;52.030;7.106;2024-01-07T07:58:55;101300.16;;;21.85;71.29
80198;BME280;69517;52.030;7.106;2024-01-07T08:01:21;101300.06;;;21.86;71.50
80198;BME280;69517;52.030;7.106;2024-01-07T08:03:47;101308.81;;;21.87;71.49
80198;BME280;69517;52.030;7.106;2024-01-07T08:06:15;101308.13;;;21.83;71.64
80198;BME280;69517;52.030;7.106;2024-01-07T08:08:41;101316.75;;;21.29;63.42
80198;BME280;69517;52.030;7.106;2024-01-07T08:11:07;101316.25;;;19.82;59.00
80198;BME280;69517;52.030;7.106;2024-01-07T08:13:34;101326.75;;;19.32;57.60
80198;BME280;69517;52.030;7.106;2024-01-07T08:16:01;101333.25;;;19.08;54.61
80198;BME280;69517;52.030;7.106;2024-01-07T08:18:27;101333.81;;;18.79;53.48
80198;BME280;69517;52.030;7.106;2024-01-07T08:20:53;101334.56;;;18.45;52.19
80198;BME280;69517;52.030;7.106;2024-01-07T08:23:21;101339.59;;;18.12;50.41
80198;BME280;69517;52.030;7.106;2024-01-07T08:25:47;101355.50;;;18.63;52.03
80198;BME280;69517;52.030;7.106;2024-01-07T08:28:16;101353.06;;;19.48;53.97
80198;BME280;69517;52.030;7.106;2024-01-07T08:30:42;101347.91;;;20.12;53.89
80198;BME280;69517;52.030;7.106;2024-01-07T08:33:09;101358.59;;;20.56;53.49
80198;BME280;69517;52.030;7.106;2024-01-07T08:35:35;101358.06;;;20.81;53.42
80198;BME280;69517;52.030;7.106;2024-01-07T08:38:02;101363.31;;;20.97;53.38
80198;BME280;69517;52.030;7.106;2024-01-07T08:40:30;101364.31;;;21.10;53.74
80198;BME280;69517;52.030;7.106;2024-01-07T08:42:56;101360.03;;;21.23;54.20
80198;BME280;69517;52.030;7.106;2024-01-07T08:45:23;101361.28;;;21.32;54.51
80198;BME280;69517;52.030;7.106;2024-01-07T08:47:49;101367.88;;;21.39;54.86
80198;BME280;69517;52.030;7.106;2024-01-07T08:50:15;101376.16;;;21.47;55.21
80198;BME280;69517;52.030;7.106;2024-01-07T08:52:41;101378.34;;;21.55;55.38
80198;BME280;69517;52.030;7.106;2024-01-07T08:55:08;101383.16;;;21.62;55.73
80198;BME280;69517;52.030;7.106;2024-01-07T08:57:36;101387.28;;;21.66;55.91
80198;BME280;69517;52.030;7.106;2024-01-07T09:00:03;101390.97;;;21.64;56.61
80198;BME280;69517;52.030;7.106;2024-01-07T09:02:29;101383.22;;;21.61;57.15
80198;BME280;69517;52.030;7.106;2024-01-07T09:04:56;101395.53;;;21.60;57.84
80198;BME280;69517;52.030;7.106;2024-01-07T09:07:23;101384.56;;;21.68;58.09
80198;BME280;69517;52.030;7.106;2024-01-07T09:09:49;101385.88;;;21.75;58.18
80198;BME280;69517;52.030;7.106;2024-01-07T09:12:16;101389.00;;;21.81;58.44
80198;BME280;69517;52.030;7.106;2024-01-07T09:14:46;101393.59;;;21.78;58.76
80198;BME280;69517;52.030;7.106;2024-01-07T09:17:12;101401.41;;;21.79;59.42
80198;BME280;69517;52.030;7.106;2024-01-07T09:19:38;101399.44;;;21.83;59.57
80198;BME280;69517;52.030;7.106;2024-01-07T09:22:04;101410.69;;;21.85;59.62
80198;BME280;69517;52.030;7.106;2024-01-07T09:24:31;101411.56;;;21.85;59.62
80198;BME280;69517;52.030;7.106;2024-01-07T09:26:57;101421.16;;;21.86;59.78
80198;BME280;69517;52.030;7.106;2024-01-07T09:29:24;101431.03;;;21.83;60.22
80198;BME280;69517;52.030;7.106;2024-01-07T09:31:52;101430.81;;;21.86;60.24
80198;BME280;69517;52.030;7.106;2024-01-07T09:34:18;101441.94;;;21.77;60.92
80198;BME280;69517;52.030;7.106;2024-01-07T09:36:44;101442.38;;;21.69;61.61
80198;BME280;69517;52.030;7.106;2024-01-07T09:39:11;101453.19;;;21.79;61.38
80198;BME280;69517;52.030;7.106;2024-01-07T09:41:37;101451.50;;;21.78;61.60
80198;BME280;69517;52.030;7.106;2024-01-07T09:44:04;101461.09;;;21.79;61.59
80198;BME280;69517;52.030;7.106;2024-01-07T09:46:32;101470.19;;;21.73;61.81
80198;BME280;69517;52.030;7.106;2024-01-07T09:49:01;101464.75;;;21.76;61.72
80198;BME280;69517;52.030;7.106;2024-01-07T09:51:28;101465.34;;;21.81;61.79
80198;BME280;69517;52.030;7.106;2024-01-07T09:53:57;101472.16;;;21.70;62.01
80198;BME280;69517;52.030;7.106;2024-01-07T09:56:25;101462.75;;;21.66;62.17
80198;BME280;69517;52.030;7.106;2024-01-07T09:58:51;101463.22;;;21.58;62.17
80198;BME280;69517;52.030;7.106;2024-01-07T10:01:17;101466.78;;;21.57;62.19
80198;BME280;69517;52.030;7.106;2024-01-07T10:03:44;101477.22;;;21.59;61.98
80198;BME280;69517;52.030;7.106;2024-01-07T10:06:11;101478.91;;;21.60;62.27
80198;BME280;69517;52.030;7.106;2024-01-07T10:08:38;101477.88;;;21.62;62.45
80198;BME280;69517;52.030;7.106;2024-01-07T10:11:05;101478.81;;;21.61;62.90
80198;BME280;69517;52.030;7.106;2024-01-07T10:13:34;101483.22;;;21.61;62.89
80198;BME280;69517;52.030;7.106;2024-01-07T10:16:00;101481.53;;;21.60;63.02
80198;BME280;69517;52.030;7.106;2024-01-07T10:18:27;101476.25;;;21.60;63.10
80198;BME280;69517;52.030;7.106;2024-01-07T10:20:56;101479.84;;;21.59;63.38
80198;BME280;69517;52.030;7.106;2024-01-07T10:23:30;101479.84;;;21.59;63.58
80198;BME280;69517;52.030;7.106;2024-01-07T10:25:56;101480.94;;;21.55;63.75
80198;BME280;69517;52.030;7.106;2024-01-07T10:28:23;101487.13;;;21.54;63.52
80198;BME280;69517;52.030;7.106;2024-01-07T10:30:49;101478.59;;;21.50;63.67
80198;BME280;69517;52.030;7.106;2024-01-07T10:33:16;101482.00;;;21.52;63.65
80198;BME280;69517;52.030;7.106;2024-01-07T10:35:43;101488.25;;;21.50;63.66
80198;BME280;69517;52.030;7.106;2024-01-07T10:38:12;101498.78;;;21.50;63.78
80198;BME280;69517;52.030;7.106;2024-01-07T10:40:40;101495.38;;;21.48;63.77
80198;BME280;69517;52.030;7.106;2024-01-07T10:43:06;101492.75;;;21.48;63.92
80198;BME280;69517;52.030;7.106;2024-01-07T10:45:33;101498.03;;;21.48;64.10
80198;BME280;69517;52.030;7.106;2024-01-07T10:47:59;101496.16;;;21.50;63.97
80198;BME280;69517;52.030;7.106;2024-01-07T10:50:31;101499.72;;;21.49;64.39
80198;BME280;69517;52.030;7.106;2024-01-07T10:52:58;101504.97;;;21.49;64.34
80198;BME280;69517;52.030;7.106;2024-01-07T10:55:29;101500.56;;;21.49;64.49
80198;BME280;69517;52.030;7.106;2024-01-07T10:57:59;101495.38;;;21.48;64.49
80198;BME280;69517;52.030;7.106;2024-01-07T11:00:26;101502.44;;;21.47;64.70
80198;BME280;69517;52.030;7.106;2024-01-07T11:02:57;101506.97;;;21.45;64.73
80198;BME280;69517;52.030;7.106;2024-01-07T11:05:30;101507.13;;;21.42;64.95
80198;BME280;69517;52.030;7.106;2024-01-07T11:07:57;101509.66;;;21.43;64.88
80198;BME280;69517;52.030;7.106;2024-01-07T11:10:29;101515.50;;;21.49;64.89
80198;BME280;69517;52.030;7.106;2024-01-07T11:13:00;101502.34;;;21.49;64.75
80198;BME280;69517;52.030;7.106;2024-01-07T11:18:16;101525.38;;;21.45;65.07
80198;BME280;69517;52.030;7.106;2024-01-07T11:20:43;101520.13;;;21.45;65.25
80198;BME280;69517;52.030;7.106;2024-01-07T11:23:25;101519.25;;;21.44;65.11
80198;BME280;69517;52.030;7.106;2024-01-07T11:25:52;101529.78;;;21.44;65.28
80198;BME280;69517;52.030;7.106;2024-01-07T11:28:24;101521.88;;;21.44;65.17
80198;BME280;69517;52.030;7.106;2024-01-07T11:31:07;101533.34;;;21.43;65.11
80198;BME280;69517;52.030;7.106;2024-01-07T11:33:35;101531.22;;;21.50;65.49
80198;BME280;69517;52.030;7.106;2024-01-07T11:36:02;101530.09;;;21.54;65.69
80198;BME280;69517;52.030;7.106;2024-01-07T11:38:28;101538.91;;;21.53;65.83
80198;BME280;69517;52.030;7.106;2024-01-07T11:40:55;101536.13;;;21.56;66.00
80198;BME280;69517;52.030;7.106;2024-01-07T11:43:22;101547.50;;;21.57;66.45
80198;BME280;69517;52.030;7.106;2024-01-07T11:45:49;101542.31;;;21.55;66.86
80198;BME280;69517;52.030;7.106;2024-01-07T11:48:17;101541.47;;;21.55;67.30
80198;BME280;69517;52.030;7.106;2024-01-07T11:50:43;101541.53;;;21.53;67.46
80198;BME280;69517;52.030;7.106;2024-01-07T11:53:11;101546.72;;;21.55;67.38
80198;BME280;69517;52.030;7.106;2024-01-07T11:55:37;101535.28;;;21.56;67.98
80198;BME280;69517;52.030;7.106;2024-01-07T11:58:03;101538.47;;;21.61;68.63
80198;BME280;69517;52.030;7.106;2024-01-07T12:00:33;101535.84;;;21.61;69.20
80198;BME280;69517;52.030;7.106;2024-01-07T12:02:59;101534.34;;;21.57;69.53
80198;BME280;69517;52.030;7.106;2024-01-07T12:05:27;101538.84;;;21.55;69.58
80198;BME280;69517;52.030;7.106;2024-01-07T12:07:54;101536.41;;;21.52;69.28
80198;BME280;69517;52.030;7.106;2024-01-07T12:10:22;101535.91;;;21.45;69.01
80198;BME280;69517;52.030;7.106;2024-01-07T12:12:49;101542.41;;;21.54;68.62
80198;BME280;69517;52.030;7.106;2024-01-07T12:15:16;101549.19;;;21.58;68.36
80198;BME280;69517;52.030;7.106;2024-01-07T12:17:47;101545.66;;;21.59;68.38
80198;BME280;69517;52.030;7.106;2024-01-07T12:20:14;101541.38;;;21.56;68.48
80198;BME280;69517;52.030;7.106;2024-01-07T12:22:42;101555.22;;;21.60;68.50
80198;BME280;69517;52.030;7.106;2024-01-07T12:25:08;101557.25;;;21.55;68.21
80198;BME280;69517;52.030;7.106;2024-01-07T12:27:35;101557.19;;;21.56;68.09
80198;BME280;69517;52.030;7.106;2024-01-07T12:30:01;101557.84;;;21.60;67.91
80198;BME280;69517;52.030;7.106;2024-01-07T12:32:28;101558.53;;;21.63;68.13
80198;BME280;69517;52.030;7.106;2024-01-07T12:34:56;101561.25;;;21.62;68.10
80198;BME280;69517;52.030;7.106;2024-01-07T12:37:22;101562.16;;;21.61;67.97
80198;BME280;69517;52.030;7.106;2024-01-07T12:39:50;101561.44;;;21.59;68.16
80198;BME280;69517;52.030;7.106;2024-01-07T12:42:16;101570.34;;;21.56;68.38
80198;BME280;69517;52.030;7.106;2024-01-07T12:44:43;101565.22;;;21.53;68.48
80198;BME280;69517;52.030;7.106;2024-01-07T12:47:09;101571.34;;;21.54;68.77
80198;BME280;69517;52.030;7.106;2024-01-07T12:49:36;101565.34;;;21.52;68.53